Terminal Aerodrome Forecast
Issued by NWS

Home | Current Version | Previous Version | Graphics & Text | Print | Product List | Glossary On
Versions: 1 2 3 4 5 6 7 8 9 10 11 12 13 14 15 16 17 18 19 20 21 22 23 24 25 26 27 28 29 30 31 32 33 34 35 36 37 38 39 40 41 42 43 44 45 46 47 48 49 50
000
FTUS45 KBOU 270540
TAFAPA
TAF
KAPA 270540Z 2706/2806 VRB05KT P6SM BKN025 BKN045
     FM270800 08006KT P6SM SCT045 BKN220
     FM271000 17007KT P6SM SCT220
     FM271500 VRB06KT P6SM FEW150 SCT220
     FM271900 15007KT P6SM FEW100 SCT150
     FM272200 10008KT P6SM SCT060 BKN100 BKN220
     FM280300 16009KT P6SM VCSH SCT030 BKN070 OVC100=

USA.gov is the U.S. government's official web portal to all federal, state and local government web resources and services.